Latest Weather Observations for Charles Point

IDD60901

Issued at 8:31 am CST Wednesday 20 February 2019 (issued every 10 minutes, with the page automatically refreshed every 10 minutes)

About weather observations | Map of Darwin area stations | Latest observations for Darwin area | Other Formats
Station Details ID: 014031 Name: CHARLES POINT Lat: -12.39 Lon: 130.63 Height: 14.0 m
Data from the previous 72 hours. | See also: Recent months for locations in Northern Territory
Date/Time
CST
Temp
°C
App
Temp
°C
Dew
Point
°C
Rel
Hum
%
Delta-T
°C
Wind Press
QNH
hPa
Press
MSL
hPa
Rain since
9am
mm
Dir  Spd
km/h
Gust
km/h
Spd
kts
Gust
kts
20/08:30am 26.6 30.4 23.5 83 2.1 WNW 9 15 5 8 1013.6 1013.5 0.2
20/08:00am 25.7 28.5 23.6 88 1.4 W 15 24 8 13 1014.0 1013.9 0.2
20/07:30am 26.8 30.8 23.1 80 2.5 E 7 11 4 6 1013.4 1013.3 0.0
20/07:00am 26.9 31.3 23.8 83 2.1 E 7 20 4 11 1013.2 1013.1 0.0
20/06:30am 27.3 30.9 23.7 81 2.5 SE 11 19 6 10 1013.1 1013.0 0.0
20/06:00am 28.5 34.5 24.9 81 2.5 WSW 2 4 1 2 1012.6 1012.5 0.0
20/05:30am 28.8 34.7 25.4 82 2.4 W 4 6 2 3 1012.5 1012.4 0.0
20/05:00am 29.0 34.1 25.6 82 2.4 WNW 9 17 5 9 1011.5 1011.4 0.0
20/04:30am 29.1 34.2 26.1 84 2.1 WNW 11 15 6 8 1011.3 1011.2 0.0
20/04:00am 28.9 35.4 25.7 83 2.3 WSW 2 6 1 3 1011.9 1011.8 0.0
20/03:30am 29.0 33.4 25.6 82 2.4 W 13 20 7 11 1012.3 1012.2 0.0
20/03:00am 29.0 33.1 25.2 80 2.7 WNW 13 20 7 11 1012.6 1012.5 0.0
20/02:30am 29.3 33.6 25.5 80 2.7 WNW 13 20 7 11 1012.4 1012.3 0.0
20/02:00am 29.3 33.0 25.7 81 2.5 WNW 17 22 9 12 1012.4 1012.3 0.0
20/01:30am 29.4 33.8 25.6 80 2.7 WNW 13 19 7 10 1013.0 1012.9 0.0
20/01:00am 29.4 33.0 25.6 80 2.7 WNW 17 24 9 13 1012.9 1012.8 0.0
20/12:30am 29.4 33.4 25.6 80 2.7 WNW 15 20 8 11 1013.0 1012.9 0.0
20/12:00am 29.4 33.9 25.8 81 2.6 WNW 13 22 7 12 1013.3 1013.2 0.0
 
Date/Time
CST
Temp
°C
App
Temp
°C
Dew
Point
°C
Rel
Hum
%
Delta-T
°C
Wind Press
QNH
hPa
Press
MSL
hPa
Rain since
9am
mm
Dir  Spd
km/h
Gust
km/h
Spd
kts
Gust
kts
19/11:30pm 29.4 34.3 24.7 76 3.3 W 7 13 4 7 1013.8 1013.7 0.0
19/11:00pm 29.5 34.1 25.3 78 3.0 W 11 19 6 10 1013.4 1013.3 0.0
19/10:30pm 29.6 32.6 25.6 79 2.8 WNW 20 32 11 17 1012.7 1012.6 0.0
19/10:00pm 29.6 33.3 25.8 80 2.7 W 17 28 9 15 1011.8 1011.7 0.0
19/09:30pm 29.7 32.9 25.9 80 2.7 WNW 20 28 11 15 1011.7 1011.6 0.0
19/09:00pm 29.6 33.0 25.8 80 2.7 WNW 19 24 10 13 1011.8 1011.7 0.0
19/08:30pm 29.4 32.6 25.8 81 2.6 WNW 20 28 11 15 1011.5 1011.4 0.0
19/08:00pm 29.8 34.0 24.7 74 3.6 W 11 19 6 10 1011.1 1011.0 0.0
19/07:30pm 29.9 34.6 25.0 75 3.4 W 9 17 5 9 1010.8 1010.7 0.0
19/07:00pm 30.3 34.3 25.1 73 3.7 W 13 20 7 11 1010.5 1010.4 0.0
19/06:30pm 30.7 34.4 25.1 72 3.9 WNW 15 22 8 12 1009.9 1009.8 0.0
19/06:00pm 31.1 34.5 25.2 71 4.2 W 17 28 9 15 1009.6 1009.5 0.0
19/05:30pm 31.4 35.1 24.5 67 4.8 W 13 22 7 12 1010.0 1009.9 0.0
19/05:00pm 31.8 35.7 24.9 67 4.9 W 13 22 7 12 1010.1 1010.0 0.0
19/04:30pm 32.4 36.5 25.7 68 4.8 W 15 28 8 15 1009.6 1009.5 0.0
19/04:00pm 32.4 36.3 26.0 69 4.6 WNW 17 26 9 14 1010.0 1009.9 0.0
19/03:30pm 32.6 35.8 24.9 64 5.4 WNW 17 28 9 15 1010.2 1010.1 0.0
19/03:00pm 32.7 35.5 25.0 64 5.4 WNW 19 26 10 14 1010.4 1010.3 0.0
19/02:30pm 32.5 36.2 25.8 68 4.8 WNW 17 24 9 13 1010.5 1010.4 0.0
19/02:00pm 32.5 35.5 25.6 67 4.9 WNW 20 30 11 16 1010.8 1010.7 0.0
19/01:30pm 32.2 35.2 25.3 67 4.9 WNW 19 28 10 15 1011.0 1010.9 0.0
19/01:00pm 32.3 35.5 25.9 69 4.6 WNW 20 32 11 17 1011.3 1011.2 0.0
19/12:30pm 32.4 35.9 26.0 69 4.6 WNW 19 30 10 16 1011.6 1011.5 0.0
19/12:00pm 31.9 34.9 25.5 69 4.5 WNW 20 28 11 15 1011.8 1011.7 0.0
19/11:30am 32.0 35.4 25.3 67 4.7 WNW 17 22 9 12 1012.0 1011.9 0.0
19/11:00am 31.8 34.9 25.4 69 4.5 WNW 19 28 10 15 1012.2 1012.1 0.0
19/10:30am 31.3 33.9 24.9 69 4.5 WNW 20 30 11 16 1012.3 1012.2 0.0
19/10:00am 30.9 33.7 25.3 72 4.0 WNW 20 26 11 14 1012.2 1012.1 0.0
19/09:30am 30.9 33.9 25.3 72 4.0 WNW 19 24 10 13 1012.0 1011.9 0.0
19/09:00am 30.4 34.0 25.0 73 3.8 WNW 15 22 8 12 1012.1 1012.0 0.0
19/08:30am 30.1 34.3 24.7 73 3.8 W 11 19 6 10 1011.9 1011.8 0.0
19/08:00am 29.9 34.1 24.8 74 3.6 W 11 19 6 10 1011.8 1011.7 0.0
19/07:30am 29.4 33.7 24.3 74 3.5 W 9 17 5 9 1011.4 1011.3 0.0
19/07:00am 28.9 33.2 24.2 76 3.3 W 9 15 5 8 1011.1 1011.0 0.0
19/06:30am 28.9 33.2 24.2 76 3.3 W 9 17 5 9 1011.0 1010.9 0.0
19/06:00am 29.0 33.6 24.8 78 2.9 W 9 17 5 9 1010.9 1010.8 0.0
19/05:30am 29.0 32.2 24.3 76 3.3 W 15 26 8 14 1010.5 1010.4 0.0
19/05:00am 29.0 32.6 24.3 76 3.3 W 13 22 7 12 1010.3 1010.2 0.0
19/04:30am 29.1 32.7 24.4 76 3.3 W 13 22 7 12 1010.4 1010.3 0.0
19/04:00am 29.1 32.8 25.1 79 2.8 WNW 15 26 8 14 1010.4 1010.3 0.0
19/03:30am 29.0 32.1 24.8 78 2.9 WNW 17 26 9 14 1010.3 1010.2 0.0
19/03:00am 29.1 31.7 24.9 78 2.9 WNW 20 26 11 14 1010.7 1010.6 0.0
19/02:30am 29.0 32.2 25.0 79 2.8 WNW 17 24 9 13 1010.8 1010.7 0.0
19/02:00am 29.2 31.5 25.0 78 2.9 WNW 22 28 12 15 1011.0 1010.9 0.0
19/01:30am 29.1 31.6 24.4 76 3.3 WNW 19 24 10 13 1011.5 1011.4 0.0
19/01:00am 29.1 32.3 24.9 78 2.9 WNW 17 22 9 12 1012.0 1011.9 0.0
19/12:30am 29.3 31.8 24.4 75 3.4 WNW 19 26 10 14 1012.1 1012.0 0.0
19/12:00am 29.3 32.3 25.3 79 2.8 WNW 19 26 10 14 1012.2 1012.1 0.0
 
Date/Time
CST
Temp
°C
App
Temp
°C
Dew
Point
°C
Rel
Hum
%
Delta-T
°C
Wind Press
QNH
hPa
Press
MSL
hPa
Rain since
9am
mm
Dir  Spd
km/h
Gust
km/h
Spd
kts
Gust
kts
18/11:30pm 29.2 32.2 24.7 77 3.1 WNW 17 20 9 11 1012.1 1012.0 0.0
18/11:00pm 29.4 32.8 24.7 76 3.3 WNW 15 22 8 12 1011.9 1011.8 0.0
18/10:30pm 29.5 32.2 24.8 76 3.3 WNW 19 24 10 13 1011.7 1011.6 0.0
18/10:00pm 29.6 32.5 25.1 77 3.2 WNW 19 24 10 13 1011.5 1011.4 0.0
18/09:30pm 29.6 33.0 24.7 75 3.4 WNW 15 20 8 11 1011.3 1011.2 0.0
18/09:00pm 29.7 33.1 25.2 77 3.2 WNW 17 24 9 13 1010.9 1010.8 0.0
18/08:30pm 29.7 33.2 24.8 75 3.4 WNW 15 22 8 12 1010.5 1010.4 0.0
18/08:00pm 29.6 33.5 24.9 76 3.3 W 13 20 7 11 1009.9 1009.8 0.0
18/07:30pm 29.8 33.6 25.3 77 3.2 WNW 15 24 8 13 1009.3 1009.2 0.0
18/07:00pm 30.1 33.6 25.4 76 3.3 WNW 17 22 9 12 1009.5 1009.4 0.0
18/06:30pm 30.3 34.7 25.1 73 3.7 W 11 20 6 11 1009.2 1009.1 0.0
18/06:00pm 30.8 34.3 24.9 71 4.2 WNW 15 22 8 12 1009.0 1008.9 0.0
18/05:30pm 31.2 34.7 24.8 69 4.5 WNW 15 24 8 13 1008.9 1008.8 0.0
18/05:00pm 31.7 35.9 25.3 69 4.5 W 13 24 7 13 1008.8 1008.7 0.0
18/04:30pm 31.9 35.3 24.7 65 5.1 W 15 26 8 14 1008.7 1008.6 0.0
18/04:00pm 31.9 34.9 24.7 65 5.1 WNW 17 24 9 13 1008.7 1008.6 0.0
18/03:30pm 32.1 35.3 24.9 65 5.1 WNW 17 24 9 13 1009.0 1008.9 0.0
18/03:00pm 32.3 35.3 24.6 64 5.4 WNW 17 24 9 13 1009.1 1009.0 0.0
18/02:30pm 32.3 35.7 24.6 64 5.4 WNW 15 24 8 13 1009.4 1009.3 0.0
18/02:00pm 32.4 36.0 24.4 62 5.6 W 13 22 7 12 1009.8 1009.7 0.0
18/01:30pm 32.1 36.0 25.4 67 4.8 WNW 15 24 8 13 1010.0 1009.9 0.0
18/01:00pm 32.2 35.4 25.5 67 4.8 WNW 19 24 10 13 1010.4 1010.3 0.0
18/12:30pm 32.2 35.7 25.5 67 4.8 WNW 17 24 9 13 1010.9 1010.8 0.0
18/12:00pm 32.0 35.1 24.8 65 5.1 WNW 17 22 9 12 1011.1 1011.0 0.0
18/11:30am 31.7 35.0 25.1 68 4.7 WNW 17 22 9 12 1011.4 1011.3 0.0
18/11:00am 31.6 35.7 25.2 69 4.5 WNW 13 19 7 10 1011.6 1011.5 0.0
18/10:30am 31.2 36.0 25.1 70 4.3 W 9 19 5 10 1011.6 1011.5 0.0
18/10:00am 31.2 35.6 25.1 70 4.3 WNW 11 20 6 11 1011.5 1011.4 0.0
18/09:30am 31.0 35.4 25.1 71 4.2 W 11 19 6 10 1011.4 1011.3 0.0
18/09:00am 30.6 34.6 25.0 72 3.9 WNW 13 20 7 11 1011.3 1011.2 0.0
18/08:30am 30.5 35.2 24.9 72 3.9 W 9 15 5 8 1011.0 1010.9 0.0
18/08:00am 29.8 34.5 24.9 75 3.4 W 9 15 5 8 1010.6 1010.5 0.0
18/07:30am 29.2 34.5 25.0 78 2.9 W 6 11 3 6 1010.2 1010.1 0.0
18/07:00am 28.6 33.8 24.8 80 2.7 W 6 9 3 5 1009.8 1009.7 0.0
18/06:30am 28.3 34.1 25.1 83 2.2 WSW 4 9 2 5 1009.6 1009.5 0.0
18/06:00am 28.3 33.9 24.9 82 2.4 WSW 4 7 2 4 1009.3 1009.2 0.0
18/05:30am 28.2 33.5 24.4 80 2.6 WSW 4 9 2 5 1009.2 1009.1 0.0
18/05:00am 28.6 33.5 24.4 78 2.9 WSW 6 9 3 5 1009.1 1009.0 0.0
18/04:30am 28.6 34.1 24.6 79 2.8 WSW 4 7 2 4 1008.9 1008.8 0.0
18/04:00am 28.4 33.2 24.2 78 2.9 W 6 11 3 6 1008.7 1008.6 0.0
18/03:30am 28.4 33.5 24.6 80 2.7 WSW 6 7 3 4 1008.9 1008.8 0.0
18/03:00am 28.4 33.5 24.6 80 2.7 W 6 11 3 6 1009.3 1009.2 0.0
18/02:30am 28.0 33.1 24.6 82 2.4 WSW 6 9 3 5 1009.4 1009.3 0.0
18/02:00am 28.1 33.7 24.9 83 2.2 WSW 4 9 2 5 1009.6 1009.5 0.0
18/01:30am 27.3 33.6 24.7 86 1.8 CALM 0 0 0 0 1010.0 1009.9 0.0
18/01:00am 27.1 32.4 24.4 85 1.9 SSE 4 4 2 2 1010.7 1010.6 0.0
18/12:30am 27.3 33.4 24.4 84 2.0 CALM 0 0 0 0 1011.0 1010.9 0.0
18/12:00am 27.3 32.9 24.2 83 2.1 SSW 2 4 1 2 1011.3 1011.2 0.0
 
Date/Time
CST
Temp
°C
App
Temp
°C
Dew
Point
°C
Rel
Hum
%
Delta-T
°C
Wind Press
QNH
hPa
Press
MSL
hPa
Rain since
9am
mm
Dir  Spd
km/h
Gust
km/h
Spd
kts
Gust
kts
17/11:30pm 27.1 31.7 23.8 82 2.3 SSW 6 9 3 5 1011.3 1011.2 0.0
17/11:00pm 27.0 31.5 23.7 82 2.3 S 6 7 3 4 1011.3 1011.2 0.0
17/10:30pm 27.2 31.9 23.9 82 2.3 S 6 7 3 4 1011.2 1011.1 0.0
17/10:00pm 27.1 31.6 23.6 81 2.4 S 6 9 3 5 1011.0 1010.9 0.0
17/09:30pm 27.1 31.7 23.1 79 2.7 SSW 4 7 2 4 1010.7 1010.6 0.0
17/09:00pm 27.3 32.2 23.7 81 2.5 S 4 6 2 3 1010.2 1010.1 0.0
17/08:30pm 27.2 31.9 23.4 80 2.6 SSW 4 6 2 3 1009.9 1009.8 0.0
17/08:00pm 27.4 31.9 23.0 77 3.0 SW 4 6 2 3 1009.6 1009.5 0.0
17/07:30pm 27.7 31.5 22.4 73 3.6 SSW 6 9 3 5 1009.5 1009.4 0.0
17/07:00pm 28.7 31.4 22.2 68 4.4 S 11 20 6 11 1009.7 1009.6 0.0
17/06:30pm 30.9 35.5 24.8 70 4.3 WSW 9 17 5 9 1009.1 1009.0 0.0
17/06:00pm 31.3 36.2 24.7 68 4.6 SW 7 15 4 8 1009.0 1008.9 0.0
17/05:30pm 31.5 35.9 24.4 66 5.0 W 9 17 5 9 1008.5 1008.4 0.0
17/05:00pm 31.8 36.3 25.2 68 4.7 W 11 20 6 11 1008.0 1007.8 0.0
17/04:30pm 31.6 35.1 24.2 65 5.2 W 13 24 7 13 1008.3 1008.1 0.0
17/04:00pm 32.0 35.5 24.8 65 5.1 W 15 24 8 13 1008.2 1008.0 0.0
17/03:30pm 31.9 34.9 25.2 67 4.7 WNW 19 26 10 14 1008.3 1008.1 0.0
17/03:00pm 32.5 35.7 25.6 67 4.9 WNW 19 24 10 13 1008.7 1008.6 0.0
17/02:30pm 32.1 35.1 25.2 67 4.9 WNW 19 24 10 13 1009.4 1009.3 0.0
17/02:00pm 32.5 35.9 25.3 66 5.1 WNW 17 22 9 12 1009.8 1009.7 0.0
17/01:30pm 31.9 35.5 25.0 67 4.9 WNW 15 20 8 11 1010.5 1010.4 0.0
17/01:00pm 32.1 36.3 25.4 67 4.8 WNW 13 19 7 10 1010.8 1010.7 0.0
17/12:30pm 32.1 36.7 25.9 70 4.4 WNW 13 20 7 11 1011.2 1011.1 0.0
17/12:00pm 31.8 35.8 25.6 69 4.4 WNW 15 22 8 12 1011.5 1011.4 0.0
17/11:30am 31.6 35.7 25.7 71 4.2 WNW 15 20 8 11 1011.7 1011.6 0.0
17/11:00am 31.4 35.6 25.3 70 4.3 WNW 13 20 7 11 1012.0 1011.9 0.0
17/10:30am 31.2 35.8 25.3 71 4.2 WNW 11 17 6 9 1012.0 1011.9 0.0
17/10:00am 30.9 35.5 25.3 72 4.0 WNW 11 17 6 9 1011.8 1011.7 0.0
17/09:30am 30.5 35.3 25.1 73 3.8 WNW 9 13 5 7 1012.0 1011.9 0.0
17/09:00am 30.1 34.7 24.7 73 3.8 W 9 15 5 8 1012.2 1012.1 0.0

Latest Capital City Observations: Canberra | Sydney | Melbourne | Brisbane | Adelaide | Perth | Hobart | Darwin

Other formats

Comma delimited format used in spreadsheet applications
http://www.bom.gov.au/fwo/IDD60901/IDD60901.99510.axf

JavaScript Object Notation format (JSON) in row-major order
http://www.bom.gov.au/fwo/IDD60901/IDD60901.99510.json

Data quality

Most of these data are generated automatically and are frequently updated. Quality checks on data are not normally performed. It is possible for incorrect values to appear. Refer to information at About Latest Weather Observations and please check the disclaimer before using these data.